Time;durP1;ratioP1;P1;durP2;ratioP2;P2;SDS_P1;SDS_P2;PMS_P1;PMS_P2;Temp;Humidity;BMP_temperature;BMP_pressure;BME280_temperature;BME280_humidity;BME280_pressure;Samples;Min_cycle;Max_cycle;Signal;HPM_P1;HPM_P2
2021/07/16 00:02:19;;;;;;;;;;;17.10;99.90;;;;;;5032891;28;20300;-75
2021/07/16 00:04:44;;;;;;;;;;;17.10;99.90;;;;;;5036768;28;19909;-74
2021/07/16 00:07:10;;;;;;;;;;;17.10;99.90;;;;;;5043304;28;19919;-74
2021/07/16 00:09:35;;;;;;;;;;;17.00;99.90;;;;;;5038043;28;19917;-74
2021/07/16 00:12:01;;;;;;;;;;;17.00;99.90;;;;;;5046725;28;19982;-74
2021/07/16 00:14:26;;;;;;;;;;;17.00;99.90;;;;;;5045340;28;20380;-73
2021/07/16 00:16:53;;;;;;;;;;;17.00;99.90;;;;;;5040903;28;19916;-74
2021/07/16 00:19:19;;;;;;;;;;;16.90;99.90;;;;;;5042772;28;19917;-74
2021/07/16 00:21:45;;;;;;;;;;;17.00;99.90;;;;;;5041002;28;19933;-74
2021/07/16 00:24:10;;;;;;;;;;;16.90;99.90;;;;;;5054877;28;19917;-73
2021/07/16 00:26:36;;;;;;;;;;;16.90;99.90;;;;;;5062665;28;19897;-74
2021/07/16 00:29:02;;;;;;;;;;;16.90;99.90;;;;;;5062910;28;19908;-73
2021/07/16 00:31:27;;;;;;;;;;;16.90;99.90;;;;;;5059291;28;19893;-73
2021/07/16 00:33:53;;;;;;;;;;;17.00;99.90;;;;;;5057917;28;19916;-73
2021/07/16 00:36:18;;;;;;;;;;;16.90;99.90;;;;;;5071141;28;19976;-74
2021/07/16 00:38:44;;;;;;;;;;;16.90;99.90;;;;;;5065307;28;19893;-74
2021/07/16 00:41:10;;;;;;;;;;;16.80;99.90;;;;;;5067780;28;19916;-73
2021/07/16 00:43:35;;;;;;;;;;;16.80;99.90;;;;;;5064822;28;19932;-73
2021/07/16 00:46:01;;;;;;;;;;;16.80;99.90;;;;;;5060169;28;19913;-72
2021/07/16 00:48:26;;;;;;;;;;;16.80;99.90;;;;;;5060266;28;19905;-73
2021/07/16 00:50:52;;;;;;;;;;;16.80;99.90;;;;;;5066289;28;19964;-72
2021/07/16 00:53:19;;;;;;;;;;;16.80;99.90;;;;;;5063924;28;19903;-74
2021/07/16 00:55:45;;;;;;;;;;;16.80;99.90;;;;;;5064887;28;19897;-73
2021/07/16 00:58:11;;;;;;;;;;;16.80;99.90;;;;;;5071431;28;19976;-71
2021/07/16 01:00:37;;;;;;;;;;;16.80;99.90;;;;;;5044982;28;20018;-73
2021/07/16 01:03:03;;;;;;;;;;;16.80;99.90;;;;;;5043082;28;19909;-75
2021/07/16 01:05:28;;;;;;;;;;;16.70;99.90;;;;;;5052102;28;19909;-75
2021/07/16 01:07:54;;;;;;;;;;;16.70;99.90;;;;;;5042562;28;19913;-74
2021/07/16 01:10:21;;;;;;;;;;;16.80;99.90;;;;;;5041287;28;20289;-74
2021/07/16 01:12:51;;;;;;;;;;;16.80;99.90;;;;;;5045864;28;19909;-74
2021/07/16 01:15:17;;;;;;;;;;;16.70;99.90;;;;;;5042242;28;19908;-74
2021/07/16 01:17:43;;;;;;;;;;;16.70;99.90;;;;;;5042745;28;19916;-73
2021/07/16 01:20:13;;;;;;;;;;;16.70;99.90;;;;;;5037534;28;20376;-74
2021/07/16 01:22:39;;;;;;;;;;;16.70;99.90;;;;;;5034813;28;19999;-74
2021/07/16 01:25:07;;;;;;;;;;;16.80;99.90;;;;;;5035920;28;19916;-74
2021/07/16 01:27:33;;;;;;;;;;;16.70;99.90;;;;;;5046618;28;19913;-74
2021/07/16 01:29:59;;;;;;;;;;;16.60;99.90;;;;;;5042752;28;19916;-75
2021/07/16 01:32:26;;;;;;;;;;;16.60;99.90;;;;;;5042280;28;19913;-74
2021/07/16 01:35:10;;;;;;;;;;;16.60;99.90;;;;;;5046907;28;19915;-74
2021/07/16 01:37:36;;;;;;;;;;;16.60;99.90;;;;;;5034724;28;19909;-74
2021/07/16 01:40:06;;;;;;;;;;;16.60;99.90;;;;;;5039928;28;19920;-74
2021/07/16 01:42:43;;;;;;;;;;;16.50;99.90;;;;;;5031479;28;19995;-75
2021/07/16 01:45:10;;;;;;;;;;;16.50;99.90;;;;;;5043298;28;19954;-74
2021/07/16 01:47:37;;;;;;;;;;;16.50;99.90;;;;;;5035962;28;19925;-75
2021/07/16 01:50:03;;;;;;;;;;;16.40;99.90;;;;;;5038507;28;20007;-75
2021/07/16 01:52:29;;;;;;;;;;;16.50;99.90;;;;;;5037955;28;20355;-75
2021/07/16 01:54:54;;;;;;;;;;;16.50;99.90;;;;;;5044106;28;19962;-75
2021/07/16 01:57:20;;;;;;;;;;;16.60;99.90;;;;;;5038174;28;19917;-75
2021/07/16 01:59:45;;;;;;;;;;;16.50;99.90;;;;;;5043240;28;19963;-75
2021/07/16 02:02:11;;;;;;;;;;;16.50;99.90;;;;;;5037743;28;19992;-75
2021/07/16 02:04:36;;;;;;;;;;;16.40;99.90;;;;;;5035021;28;19987;-74
2021/07/16 02:07:02;;;;;;;;;;;16.40;99.90;;;;;;5044981;28;20411;-75
2021/07/16 02:09:27;;;;;;;;;;;16.40;99.90;;;;;;5045246;28;20015;-75
2021/07/16 02:11:57;;;;;;;;;;;16.50;99.90;;;;;;5051489;28;19955;-75
2021/07/16 02:14:23;;;;;;;;;;;16.50;99.90;;;;;;5037282;28;20370;-75
2021/07/16 02:16:49;;;;;;;;;;;16.50;99.90;;;;;;5039937;28;19912;-75
2021/07/16 02:19:14;;;;;;;;;;;16.40;99.90;;;;;;5035054;28;19917;-74
2021/07/16 02:21:40;;;;;;;;;;;16.40;99.90;;;;;;5042969;28;20003;-74
2021/07/16 02:24:05;;;;;;;;;;;16.40;99.90;;;;;;5042730;28;19916;-74
2021/07/16 02:26:31;;;;;;;;;;;16.40;99.90;;;;;;5039851;28;19909;-74
2021/07/16 02:28:56;;;;;;;;;;;16.30;99.90;;;;;;5039878;28;19913;-73
2021/07/16 02:31:22;;;;;;;;;;;16.30;99.90;;;;;;5037886;28;19913;-74
2021/07/16 02:33:47;;;;;;;;;;;16.20;99.90;;;;;;5036624;28;19916;-75
2021/07/16 02:38:57;;;;;;;;;;;16.20;99.90;;;;;;5034955;28;19994;-74
2021/07/16 02:41:22;;;;;;;;;;;16.20;99.90;;;;;;5037998;28;19970;-74
2021/07/16 02:43:48;;;;;;;;;;;16.20;99.90;;;;;;5036516;28;20354;-75
2021/07/16 02:46:13;;;;;;;;;;;16.20;99.90;;;;;;5045581;28;19917;-74
2021/07/16 02:48:41;;;;;;;;;;;16.20;99.90;;;;;;5046463;28;19923;-75
2021/07/16 02:51:07;;;;;;;;;;;16.10;99.90;;;;;;5044673;28;19915;-74
2021/07/16 02:53:32;;;;;;;;;;;16.20;99.90;;;;;;5037278;28;19909;-74
2021/07/16 02:55:58;;;;;;;;;;;16.20;99.90;;;;;;5041962;28;19909;-75
2021/07/16 02:58:23;;;;;;;;;;;16.10;99.90;;;;;;5043552;28;19966;-74
2021/07/16 03:00:49;;;;;;;;;;;16.10;99.90;;;;;;5046915;28;19912;-74
2021/07/16 03:03:14;;;;;;;;;;;16.10;99.90;;;;;;5034624;28;19909;-74
2021/07/16 03:05:40;;;;;;;;;;;16.20;99.90;;;;;;5038539;28;19925;-74
2021/07/16 03:08:07;;;;;;;;;;;16.20;99.90;;;;;;5033635;28;19921;-74
2021/07/16 03:10:37;;;;;;;;;;;16.20;99.90;;;;;;5036097;28;19923;-75
2021/07/16 03:13:04;;;;;;;;;;;16.20;99.90;;;;;;5034339;28;20015;-74
2021/07/16 03:15:30;;;;;;;;;;;16.20;99.90;;;;;;5032764;28;19909;-75
2021/07/16 03:17:55;;;;;;;;;;;16.10;99.90;;;;;;5033075;28;20284;-75
2021/07/16 03:20:23;;;;;;;;;;;16.10;99.90;;;;;;5033225;28;20003;-75
2021/07/16 03:22:49;;;;;;;;;;;16.20;99.90;;;;;;5031331;28;19913;-75
2021/07/16 03:25:15;;;;;;;;;;;16.20;99.90;;;;;;5032870;28;20289;-75
2021/07/16 03:27:41;;;;;;;;;;;16.20;99.90;;;;;;5032786;28;20341;-75
2021/07/16 03:30:11;;;;;;;;;;;16.10;99.90;;;;;;5032767;28;19916;-74
2021/07/16 03:32:37;;;;;;;;;;;16.10;99.90;;;;;;5031486;28;19924;-74
2021/07/16 03:35:03;;;;;;;;;;;16.10;99.90;;;;;;5032641;28;19913;-74
2021/07/16 03:37:28;;;;;;;;;;;16.10;99.90;;;;;;5031796;28;19919;-74
2021/07/16 03:39:54;;;;;;;;;;;16.10;99.90;;;;;;5032990;28;20409;-73
2021/07/16 03:42:20;;;;;;;;;;;16.20;99.90;;;;;;5032809;28;19966;-75
2021/07/16 03:44:46;;;;;;;;;;;16.20;99.90;;;;;;5032683;28;19916;-74
2021/07/16 03:47:12;;;;;;;;;;;16.20;99.90;;;;;;5032719;28;19913;-75
2021/07/16 03:49:38;;;;;;;;;;;16.20;99.90;;;;;;5031507;28;20004;-76
2021/07/16 03:52:03;;;;;;;;;;;16.10;99.90;;;;;;5032726;28;19940;-76
2021/07/16 03:54:29;;;;;;;;;;;16.10;99.90;;;;;;5032772;28;19955;-75
2021/07/16 03:56:54;;;;;;;;;;;16.20;99.90;;;;;;5038605;28;20003;-76
2021/07/16 03:59:20;;;;;;;;;;;16.10;99.90;;;;;;5036551;28;20388;-74
2021/07/16 04:01:47;;;;;;;;;;;16.10;99.90;;;;;;5034826;28;19916;-76
2021/07/16 04:04:13;;;;;;;;;;;16.10;99.90;;;;;;5032722;28;19913;-76
2021/07/16 04:06:38;;;;;;;;;;;16.10;99.90;;;;;;5048276;28;19951;-74
2021/07/16 04:09:20;;;;;;;;;;;16.10;99.90;;;;;;5057265;28;19905;-75
2021/07/16 04:11:46;;;;;;;;;;;16.10;99.90;;;;;;5058832;28;19920;-75
2021/07/16 04:14:11;;;;;;;;;;;16.20;99.90;;;;;;5055475;28;19913;-75
2021/07/16 04:16:37;;;;;;;;;;;16.20;99.90;;;;;;5062019;28;19913;-75
2021/07/16 04:19:02;;;;;;;;;;;16.10;99.90;;;;;;5064657;28;19897;-74
2021/07/16 04:21:28;;;;;;;;;;;16.20;99.90;;;;;;5063739;28;19924;-74
2021/07/16 04:23:53;;;;;;;;;;;16.10;99.90;;;;;;5068109;28;19913;-74
2021/07/16 04:26:19;;;;;;;;;;;16.10;99.90;;;;;;5053746;28;19936;-74
2021/07/16 04:28:44;;;;;;;;;;;16.10;99.90;;;;;;5046515;28;20381;-75
2021/07/16 04:31:10;;;;;;;;;;;16.10;99.90;;;;;;5037861;28;19962;-75
2021/07/16 04:33:35;;;;;;;;;;;16.10;99.90;;;;;;5045880;28;19909;-76
2021/07/16 04:36:01;;;;;;;;;;;16.10;99.90;;;;;;5047032;28;19908;-76
2021/07/16 04:38:26;;;;;;;;;;;16.20;99.90;;;;;;5043430;28;20400;-74
2021/07/16 04:40:52;;;;;;;;;;;16.20;99.90;;;;;;5047796;28;19931;-74
2021/07/16 04:43:17;;;;;;;;;;;16.20;99.90;;;;;;5036836;28;19955;-75
2021/07/16 04:45:42;;;;;;;;;;;16.30;99.90;;;;;;5034979;28;20008;-75
2021/07/16 04:48:08;;;;;;;;;;;16.30;99.90;;;;;;5038647;28;20277;-75
2021/07/16 04:50:34;;;;;;;;;;;16.30;99.90;;;;;;5043249;28;19908;-75
2021/07/16 04:52:59;;;;;;;;;;;16.30;99.90;;;;;;5041282;28;19909;-75
2021/07/16 04:55:25;;;;;;;;;;;16.20;99.90;;;;;;5040812;28;19940;-75
2021/07/16 04:57:50;;;;;;;;;;;16.20;99.90;;;;;;5039245;28;19940;-74
2021/07/16 05:00:16;;;;;;;;;;;16.20;99.90;;;;;;5037925;28;19909;-74
2021/07/16 05:02:42;;;;;;;;;;;16.20;99.90;;;;;;5040994;28;19916;-75
2021/07/16 05:05:07;;;;;;;;;;;16.20;99.90;;;;;;5048686;28;19909;-75
2021/07/16 05:07:33;;;;;;;;;;;16.20;99.90;;;;;;5043893;28;19913;-74
2021/07/16 05:09:58;;;;;;;;;;;16.30;99.90;;;;;;5038045;28;19913;-75
2021/07/16 05:12:24;;;;;;;;;;;16.30;99.90;;;;;;5035672;28;19909;-75
2021/07/16 05:14:50;;;;;;;;;;;16.30;99.90;;;;;;5038519;28;19924;-74
2021/07/16 05:17:15;;;;;;;;;;;16.30;99.90;;;;;;5039831;28;19909;-74
2021/07/16 05:19:41;;;;;;;;;;;16.30;99.90;;;;;;5040376;28;19921;-74
2021/07/16 05:22:06;;;;;;;;;;;16.30;99.90;;;;;;5046027;28;19909;-75
2021/07/16 05:24:33;;;;;;;;;;;16.30;99.90;;;;;;5041541;28;19912;-74
2021/07/16 05:26:58;;;;;;;;;;;16.30;99.90;;;;;;5039397;28;19915;-75
2021/07/16 05:29:24;;;;;;;;;;;16.30;99.90;;;;;;5042638;28;19909;-75
2021/07/16 05:31:49;;;;;;;;;;;16.30;99.90;;;;;;5039622;28;20325;-75
2021/07/16 05:34:16;;;;;;;;;;;16.30;99.90;;;;;;5046228;28;20259;-74
2021/07/16 05:36:41;;;;;;;;;;;16.20;99.90;;;;;;5043307;28;20003;-74
2021/07/16 05:39:07;;;;;;;;;;;16.30;99.90;;;;;;5045623;28;20397;-75
2021/07/16 05:41:32;;;;;;;;;;;16.30;99.90;;;;;;5046094;28;20277;-76
2021/07/16 05:43:58;;;;;;;;;;;16.30;99.90;;;;;;5035755;28;19951;-75
2021/07/16 05:46:26;;;;;;;;;;;16.30;99.90;;;;;;5040839;28;19909;-76
2021/07/16 05:48:52;;;;;;;;;;;16.30;99.90;;;;;;5046718;28;19913;-75
2021/07/16 05:51:17;;;;;;;;;;;16.40;99.90;;;;;;5043574;28;20380;-74
2021/07/16 05:53:43;;;;;;;;;;;16.40;99.90;;;;;;5037085;28;19909;-75
2021/07/16 05:56:08;;;;;;;;;;;16.50;99.90;;;;;;5042363;28;19912;-76
2021/07/16 05:58:34;;;;;;;;;;;16.50;99.90;;;;;;5041092;28;19908;-74
2021/07/16 06:00:59;;;;;;;;;;;16.50;99.90;;;;;;5034554;28;20277;-74
2021/07/16 06:03:25;;;;;;;;;;;16.50;99.90;;;;;;5040622;28;20358;-74
2021/07/16 06:05:50;;;;;;;;;;;16.50;99.90;;;;;;5039048;28;19909;-75
2021/07/16 06:08:16;;;;;;;;;;;16.50;99.90;;;;;;5040649;28;19967;-75
2021/07/16 06:10:41;;;;;;;;;;;16.50;99.90;;;;;;5035285;28;21181;-75
2021/07/16 06:13:07;;;;;;;;;;;16.50;99.90;;;;;;5038739;28;19908;-76
2021/07/16 06:15:33;;;;;;;;;;;16.50;99.90;;;;;;5037235;28;20008;-74
2021/07/16 06:17:58;;;;;;;;;;;16.60;99.90;;;;;;5042843;28;19919;-74
2021/07/16 06:20:24;;;;;;;;;;;16.60;99.90;;;;;;5054159;28;19962;-75
2021/07/16 06:22:50;;;;;;;;;;;16.60;99.90;;;;;;5035708;28;19916;-75
2021/07/16 06:25:17;;;;;;;;;;;16.60;99.90;;;;;;5043650;28;19913;-75
2021/07/16 06:27:43;;;;;;;;;;;16.60;99.90;;;;;;5035113;28;19916;-75
2021/07/16 06:30:09;;;;;;;;;;;16.70;99.90;;;;;;5035648;28;20404;-75
2021/07/16 06:32:36;;;;;;;;;;;16.70;99.90;;;;;;5035062;28;20404;-76
2021/07/16 06:35:03;;;;;;;;;;;16.70;99.90;;;;;;5043128;28;19916;-76
2021/07/16 06:37:28;;;;;;;;;;;16.70;99.90;;;;;;5035540;28;19923;-75
2021/07/16 06:39:55;;;;;;;;;;;16.80;99.90;;;;;;5035217;28;19909;-75
2021/07/16 06:42:21;;;;;;;;;;;16.70;99.90;;;;;;5035013;28;19916;-76
2021/07/16 06:44:46;;;;;;;;;;;16.60;99.90;;;;;;5033620;28;20316;-76
2021/07/16 06:47:12;;;;;;;;;;;16.50;99.90;;;;;;5049624;28;19963;-75
2021/07/16 06:49:37;;;;;;;;;;;16.60;99.90;;;;;;5033585;28;19909;-75
2021/07/16 06:52:03;;;;;;;;;;;16.70;99.90;;;;;;5033525;28;20004;-75
2021/07/16 06:54:29;;;;;;;;;;;16.70;99.90;;;;;;5034984;28;19913;-75
2021/07/16 06:56:55;;;;;;;;;;;16.70;99.90;;;;;;5034956;28;20348;-75
2021/07/16 06:59:20;;;;;;;;;;;16.70;99.90;;;;;;5033920;28;19940;-74
2021/07/16 07:01:46;;;;;;;;;;;16.80;99.90;;;;;;5033031;28;19913;-74
2021/07/16 07:04:11;;;;;;;;;;;16.90;99.90;;;;;;5034801;28;20388;-79
2021/07/16 07:06:38;;;;;;;;;;;16.90;99.90;;;;;;5034666;28;20346;-76
2021/07/16 07:09:04;;;;;;;;;;;16.90;99.90;;;;;;5033064;28;19964;-77
2021/07/16 07:11:30;;;;;;;;;;;17.00;99.90;;;;;;5032865;28;19984;-77
2021/07/16 07:13:55;;;;;;;;;;;17.00;99.90;;;;;;5049061;28;19909;-75
2021/07/16 07:16:21;;;;;;;;;;;17.00;99.90;;;;;;5034461;28;19940;-76
2021/07/16 07:18:46;;;;;;;;;;;17.00;99.90;;;;;;5033825;28;19916;-76
2021/07/16 07:21:13;;;;;;;;;;;17.00;99.90;;;;;;5034386;28;19945;-77
2021/07/16 07:23:38;;;;;;;;;;;17.00;99.90;;;;;;5034715;28;20400;-77
2021/07/16 07:26:04;;;;;;;;;;;16.90;99.90;;;;;;5033913;28;19908;-76
2021/07/16 07:28:29;;;;;;;;;;;16.90;99.90;;;;;;5033759;28;19913;-77
2021/07/16 07:30:55;;;;;;;;;;;16.80;99.90;;;;;;5033716;28;19962;-77
2021/07/16 07:33:20;;;;;;;;;;;16.80;99.90;;;;;;5034526;28;20372;-77
2021/07/16 07:35:46;;;;;;;;;;;16.80;99.90;;;;;;5034391;28;19916;-77
2021/07/16 07:38:11;;;;;;;;;;;16.80;99.90;;;;;;5034314;28;20388;-77
2021/07/16 07:40:37;;;;;;;;;;;16.80;99.90;;;;;;5034307;28;20369;-76
2021/07/16 07:43:03;;;;;;;;;;;16.80;99.90;;;;;;5032735;28;19909;-76
2021/07/16 07:45:29;;;;;;;;;;;16.80;99.90;;;;;;5032975;28;19913;-79
2021/07/16 07:47:55;;;;;;;;;;;16.80;99.90;;;;;;5034267;28;19913;-76
2021/07/16 07:50:21;;;;;;;;;;;16.80;99.90;;;;;;5034807;28;19916;-74
2021/07/16 07:52:47;;;;;;;;;;;16.80;99.90;;;;;;5034837;28;20380;-72
2021/07/16 07:55:14;;;;;;;;;;;16.80;99.90;;;;;;5043654;28;19985;-73
2021/07/16 07:57:39;;;;;;;;;;;16.90;99.90;;;;;;5049508;28;19940;-74
2021/07/16 08:00:06;;;;;;;;;;;16.90;99.90;;;;;;5050078;28;19909;-73
2021/07/16 08:02:32;;;;;;;;;;;16.90;99.90;;;;;;5050100;28;19910;-73
2021/07/16 08:04:57;;;;;;;;;;;16.90;99.90;;;;;;5050378;28;20340;-74
2021/07/16 08:07:23;;;;;;;;;;;16.90;99.90;;;;;;5052355;28;19912;-74
2021/07/16 08:09:48;;;;;;;;;;;16.90;99.90;;;;;;5052653;28;20003;-74
2021/07/16 08:12:14;;;;;;;;;;;17.00;99.90;;;;;;5052378;28;19913;-73
2021/07/16 08:14:39;;;;;;;;;;;17.00;99.90;;;;;;5056120;28;19913;-72
2021/07/16 08:17:05;;;;;;;;;;;17.10;99.90;;;;;;5056642;28;19968;-74
2021/07/16 08:19:30;;;;;;;;;;;17.00;99.90;;;;;;5057072;28;19897;-74
2021/07/16 08:21:56;;;;;;;;;;;17.00;99.90;;;;;;5057320;28;19897;-73
2021/07/16 08:24:22;;;;;;;;;;;17.00;99.90;;;;;;5057202;28;19913;-73
2021/07/16 08:26:48;;;;;;;;;;;17.00;99.90;;;;;;5060485;28;19963;-72
2021/07/16 08:29:14;;;;;;;;;;;17.10;99.90;;;;;;5061821;28;19981;-73
2021/07/16 08:31:40;;;;;;;;;;;17.20;99.90;;;;;;5070459;28;19909;-72
2021/07/16 08:34:06;;;;;;;;;;;17.20;99.90;;;;;;5045176;28;19916;-74
2021/07/16 08:36:32;;;;;;;;;;;17.30;99.90;;;;;;5044100;28;19909;-74
2021/07/16 08:38:57;;;;;;;;;;;17.30;99.90;;;;;;5041969;28;19958;-74
2021/07/16 08:41:23;;;;;;;;;;;17.40;99.90;;;;;;5041129;28;19916;-74
2021/07/16 08:43:50;;;;;;;;;;;17.60;99.90;;;;;;5040729;28;19913;-74
2021/07/16 08:46:15;;;;;;;;;;;17.60;99.90;;;;;;5040552;28;19952;-74
2021/07/16 08:48:41;;;;;;;;;;;17.70;99.90;;;;;;5039477;28;19913;-74
2021/07/16 08:51:08;;;;;;;;;;;17.70;99.90;;;;;;5039010;28;19909;-74
2021/07/16 08:53:34;;;;;;;;;;;17.70;99.90;;;;;;5037463;28;19982;-74
2021/07/16 08:55:59;;;;;;;;;;;17.70;99.90;;;;;;5037701;28;20396;-74
2021/07/16 08:58:25;;;;;;;;;;;17.80;99.90;;;;;;5052350;28;20254;-75
2021/07/16 09:00:51;;;;;;;;;;;17.80;99.90;;;;;;5035666;28;19960;-74
2021/07/16 09:03:17;;;;;;;;;;;17.80;99.90;;;;;;5036994;28;19909;-74
2021/07/16 09:05:43;;;;;;;;;;;17.70;99.90;;;;;;5035843;28;20327;-74
2021/07/16 09:08:16;;;;;;;;;;;17.80;99.90;;;;;;5036781;28;20231;-74
2021/07/16 09:11:08;;;;;;;;;;;17.90;99.90;;;;;;5036910;28;19935;-74
2021/07/16 09:13:33;;;;;;;;;;;18.00;99.90;;;;;;5033519;28;20277;-74
2021/07/16 09:16:02;;;;;;;;;;;18.00;99.90;;;;;;5036527;28;20000;-74
2021/07/16 09:18:28;;;;;;;;;;;18.00;99.90;;;;;;5035743;28;19909;-75
2021/07/16 09:21:05;;;;;;;;;;;18.10;99.90;;;;;;5037183;28;19909;-73
2021/07/16 09:23:41;;;;;;;;;;;18.10;99.90;;;;;;5037096;28;19909;-73
2021/07/16 09:26:17;;;;;;;;;;;18.10;99.90;;;;;;5036181;28;20310;-74
2021/07/16 09:28:46;;;;;;;;;;;18.30;99.90;;;;;;5036244;28;19917;-74
2021/07/16 09:31:11;;;;;;;;;;;18.50;99.90;;;;;;5036177;28;19909;-74
2021/07/16 09:33:41;;;;;;;;;;;18.70;99.90;;;;;;5036438;28;19916;-73
2021/07/16 09:36:06;;;;;;;;;;;18.70;99.90;;;;;;5034429;28;20399;-73
2021/07/16 09:38:32;;;;;;;;;;;18.80;99.90;;;;;;5035285;28;19909;-73
2021/07/16 09:41:03;;;;;;;;;;;19.00;99.90;;;;;;5034713;28;20001;-74
2021/07/16 09:43:30;;;;;;;;;;;19.00;99.90;;;;;;5036749;28;19936;-74
2021/07/16 09:46:03;;;;;;;;;;;19.10;99.90;;;;;;5035917;28;19909;-74
2021/07/16 09:48:31;;;;;;;;;;;19.30;99.90;;;;;;5031349;28;19918;-74
2021/07/16 09:51:16;;;;;;;;;;;19.40;99.90;;;;;;5032017;28;19909;-74
2021/07/16 09:53:42;;;;;;;;;;;19.30;99.90;;;;;;5032349;28;19909;-76
2021/07/16 09:56:18;;;;;;;;;;;19.20;99.90;;;;;;5035579;28;19951;-77
2021/07/16 09:58:43;;;;;;;;;;;19.00;99.90;;;;;;5036206;28;20278;-74
2021/07/16 10:01:10;;;;;;;;;;;19.20;99.90;;;;;;5034351;28;19916;-74
2021/07/16 10:03:36;;;;;;;;;;;19.40;99.90;;;;;;5036224;28;19909;-74
2021/07/16 10:06:02;;;;;;;;;;;19.30;99.90;;;;;;5035418;28;20316;-75
2021/07/16 10:08:32;;;;;;;;;;;19.20;99.90;;;;;;5036000;28;19913;-78
2021/07/16 10:10:59;;;;;;;;;;;19.10;99.90;;;;;;5034202;28;19990;-75
2021/07/16 10:13:24;;;;;;;;;;;19.10;99.90;;;;;;5036042;28;19909;-75
2021/07/16 10:15:50;;;;;;;;;;;19.50;99.90;;;;;;5039533;28;20276;-76
2021/07/16 10:18:15;;;;;;;;;;;19.80;99.90;;;;;;5041794;28;19956;-77
2021/07/16 10:20:41;;;;;;;;;;;20.00;99.90;;;;;;5040345;28;19936;-80
2021/07/16 10:23:07;;;;;;;;;;;19.90;99.90;;;;;;5041342;28;19909;-80
2021/07/16 10:25:33;;;;;;;;;;;19.90;99.90;;;;;;5033765;28;19909;-78
2021/07/16 10:27:59;;;;;;;;;;;20.10;99.90;;;;;;5034853;28;20016;-77
2021/07/16 10:30:30;;;;;;;;;;;20.50;99.90;;;;;;5035701;28;19909;-79
2021/07/16 10:32:56;;;;;;;;;;;20.30;99.90;;;;;;5034127;28;19956;-78
2021/07/16 10:35:21;;;;;;;;;;;20.20;99.90;;;;;;5036580;28;20269;-77
2021/07/16 10:37:48;;;;;;;;;;;20.30;99.90;;;;;;5035106;28;19909;-77
2021/07/16 10:40:32;;;;;;;;;;;20.60;99.90;;;;;;5033948;28;19912;-78
2021/07/16 10:42:57;;;;;;;;;;;21.00;99.90;;;;;;5031434;28;20289;-76
2021/07/16 10:45:30;;;;;;;;;;;20.90;99.90;;;;;;5035103;28;19909;-75
2021/07/16 10:48:08;;;;;;;;;;;21.00;99.90;;;;;;5031742;28;19966;-75
2021/07/16 10:50:36;;;;;;;;;;;21.20;99.90;;;;;;5034136;28;20365;-76
2021/07/16 10:53:03;;;;;;;;;;;21.40;99.90;;;;;;5034111;28;19917;-74
2021/07/16 10:55:28;;;;;;;;;;;21.20;99.90;;;;;;5031618;28;19913;-75
2021/07/16 10:57:54;;;;;;;;;;;20.90;99.90;;;;;;5032589;28;19909;-75
2021/07/16 11:00:37;;;;;;;;;;;20.80;99.90;;;;;;5035982;28;19952;-75
2021/07/16 11:03:06;;;;;;;;;;;20.80;99.90;;;;;;5034423;28;19948;-75
2021/07/16 11:05:32;;;;;;;;;;;21.00;99.90;;;;;;5034805;28;19919;-75
2021/07/16 11:08:01;;;;;;;;;;;21.20;99.90;;;;;;5033036;28;19913;-75
2021/07/16 11:10:47;;;;;;;;;;;21.30;99.90;;;;;;5034370;28;20369;-75
2021/07/16 11:13:30;;;;;;;;;;;21.30;99.90;;;;;;5034720;28;20341;-76
2021/07/16 11:15:55;;;;;;;;;;;21.20;99.90;;;;;;5034549;28;19905;-76
2021/07/16 11:18:26;;;;;;;;;;;21.00;99.90;;;;;;5033354;28;19928;-76
2021/07/16 11:20:51;;;;;;;;;;;20.90;99.90;;;;;;5034573;28;19928;-75
2021/07/16 11:23:19;;;;;;;;;;;21.00;99.90;;;;;;5034671;28;19992;-76
2021/07/16 11:25:45;;;;;;;;;;;20.70;99.90;;;;;;5033162;28;19959;-75
2021/07/16 11:28:10;;;;;;;;;;;20.50;99.90;;;;;;5034268;28;20281;-75
2021/07/16 11:30:36;;;;;;;;;;;20.50;99.90;;;;;;5033005;28;19951;-76
2021/07/16 11:33:03;;;;;;;;;;;20.60;99.90;;;;;;5034355;28;19909;-76
2021/07/16 11:35:30;;;;;;;;;;;20.60;99.90;;;;;;5032970;28;19999;-76
2021/07/16 11:37:55;;;;;;;;;;;20.60;99.90;;;;;;5034364;28;19987;-75
2021/07/16 11:40:22;;;;;;;;;;;20.70;99.90;;;;;;5034653;28;19944;-74
2021/07/16 11:42:48;;;;;;;;;;;20.90;99.90;;;;;;5032751;28;19947;-74
2021/07/16 11:45:23;;;;;;;;;;;21.10;99.90;;;;;;5034004;28;19956;-74
2021/07/16 11:47:50;;;;;;;;;;;21.30;99.90;;;;;;5032761;28;19913;-75
2021/07/16 11:50:16;;;;;;;;;;;21.30;99.90;;;;;;5034272;28;19912;-75
2021/07/16 11:52:42;;;;;;;;;;;21.30;99.90;;;;;;5034351;28;20272;-75
2021/07/16 11:55:17;;;;;;;;;;;21.50;99.90;;;;;;5034265;28;20461;-75
2021/07/16 11:57:52;;;;;;;;;;;21.60;99.90;;;;;;5034093;28;20380;-75
2021/07/16 12:00:19;;;;;;;;;;;21.80;99.90;;;;;;5034508;28;19905;-75
2021/07/16 12:02:44;;;;;;;;;;;21.80;99.90;;;;;;5034055;28;19905;-75
2021/07/16 12:05:11;;;;;;;;;;;21.60;99.90;;;;;;5032816;28;19904;-75
2021/07/16 12:07:38;;;;;;;;;;;21.50;99.90;;;;;;5033826;28;19919;-77
2021/07/16 12:10:14;;;;;;;;;;;21.70;99.90;;;;;;5033882;28;19909;-74
2021/07/16 12:12:40;;;;;;;;;;;22.00;99.90;;;;;;5034235;28;19909;-74
2021/07/16 12:15:07;;;;;;;;;;;22.20;99.90;;;;;;5034243;28;19913;-76
2021/07/16 12:17:39;;;;;;;;;;;22.30;99.90;;;;;;5032826;28;19909;-75
2021/07/16 12:20:07;;;;;;;;;;;22.20;99.90;;;;;;5034039;28;19908;-76
2021/07/16 12:22:34;;;;;;;;;;;22.00;99.90;;;;;;5032745;28;19948;-75
2021/07/16 12:25:00;;;;;;;;;;;21.90;99.90;;;;;;5033997;28;20449;-76
2021/07/16 12:27:27;;;;;;;;;;;22.00;99.90;;;;;;5033911;28;19921;-75
2021/07/16 12:30:00;;;;;;;;;;;22.10;99.90;;;;;;5034146;28;20004;-75
2021/07/16 12:32:33;;;;;;;;;;;22.20;99.90;;;;;;5033939;28;19983;-74
2021/07/16 12:34:58;;;;;;;;;;;22.30;99.90;;;;;;5034012;28;19948;-75
2021/07/16 12:37:24;;;;;;;;;;;22.30;99.90;;;;;;5032773;28;20285;-75
2021/07/16 12:40:00;;;;;;;;;;;22.40;99.90;;;;;;5032929;28;19909;-75
2021/07/16 12:42:25;;;;;;;;;;;22.50;99.90;;;;;;5034103;28;19915;-75
2021/07/16 12:45:20;;;;;;;;;;;22.30;99.90;;;;;;5034348;28;19909;-75
2021/07/16 12:47:51;;;;;;;;;;;22.40;99.90;;;;;;5029676;28;19913;-75
2021/07/16 12:50:21;;;;;;;;;;;22.50;99.90;;;;;;5034730;28;19931;-75
2021/07/16 12:52:56;;;;;;;;;;;22.50;99.90;;;;;;5035258;28;19909;-75
2021/07/16 12:55:22;;;;;;;;;;;22.50;99.90;;;;;;5034149;28;19957;-75
2021/07/16 12:57:58;;;;;;;;;;;22.50;99.90;;;;;;5034324;28;19909;-75
2021/07/16 13:00:23;;;;;;;;;;;22.60;99.90;;;;;;5035051;28;19916;-76
2021/07/16 13:02:49;;;;;;;;;;;22.70;99.90;;;;;;5034920;28;19909;-75
2021/07/16 13:05:28;;;;;;;;;;;22.70;99.90;;;;;;5050609;28;19967;-75
2021/07/16 13:08:12;;;;;;;;;;;22.70;99.90;;;;;;5033191;28;19920;-75
2021/07/16 13:10:50;;;;;;;;;;;22.60;99.90;;;;;;5035933;28;19984;-75
2021/07/16 13:13:17;;;;;;;;;;;22.60;99.90;;;;;;5053667;28;19909;-75
2021/07/16 13:15:42;;;;;;;;;;;22.70;99.90;;;;;;5055821;28;19931;-76
2021/07/16 13:18:08;;;;;;;;;;;22.90;99.90;;;;;;5056466;28;19929;-77
2021/07/16 13:20:34;;;;;;;;;;;23.10;99.90;;;;;;5056783;28;19893;-76
2021/07/16 13:22:59;;;;;;;;;;;23.10;99.90;;;;;;5055461;28;19916;-75
2021/07/16 13:25:25;;;;;;;;;;;23.00;99.90;;;;;;5056268;28;19915;-76
2021/07/16 13:27:50;;;;;;;;;;;22.90;99.90;;;;;;5056060;28;19921;-76
2021/07/16 13:30:16;;;;;;;;;;;23.00;99.90;;;;;;5057145;28;19920;-76
2021/07/16 13:32:42;;;;;;;;;;;23.10;99.90;;;;;;5056015;28;19909;-75
2021/07/16 13:35:08;;;;;;;;;;;23.30;99.90;;;;;;5055696;28;19919;-76
2021/07/16 13:37:35;;;;;;;;;;;23.30;99.90;;;;;;5058422;28;19913;-76
2021/07/16 13:40:01;;;;;;;;;;;23.40;99.90;;;;;;5059606;28;19904;-76
2021/07/16 13:42:27;;;;;;;;;;;23.30;99.90;;;;;;5070074;28;19976;-77
2021/07/16 13:44:52;;;;;;;;;;;23.10;99.90;;;;;;5065501;28;19959;-76
2021/07/16 13:47:18;;;;;;;;;;;23.00;99.90;;;;;;5058434;28;19909;-76
2021/07/16 13:49:44;;;;;;;;;;;22.90;99.90;;;;;;5059503;28;19897;-76
2021/07/16 13:52:09;;;;;;;;;;;22.90;99.90;;;;;;5057331;28;19897;-77
2021/07/16 13:54:35;;;;;;;;;;;23.00;99.90;;;;;;5058564;28;19956;-76
2021/07/16 13:57:00;;;;;;;;;;;23.10;99.90;;;;;;5056067;28;19901;-82
2021/07/16 13:59:26;;;;;;;;;;;23.10;99.90;;;;;;5057949;28;19913;-76
2021/07/16 14:01:52;;;;;;;;;;;23.20;99.90;;;;;;5058774;28;19897;-78
2021/07/16 14:04:18;;;;;;;;;;;23.50;99.90;;;;;;5059043;28;19932;-78
2021/07/16 14:06:43;;;;;;;;;;;23.60;99.90;;;;;;5058663;28;19931;-79
2021/07/16 14:09:09;;;;;;;;;;;23.50;99.90;;;;;;5058890;28;19917;-78
2021/07/16 14:11:34;;;;;;;;;;;23.40;99.90;;;;;;5057967;28;19929;-74
2021/07/16 14:14:00;;;;;;;;;;;23.40;99.90;;;;;;5053381;28;19924;-74
2021/07/16 14:16:26;;;;;;;;;;;23.50;99.90;;;;;;5053921;28;19913;-78
2021/07/16 14:18:51;;;;;;;;;;;23.20;99.90;;;;;;5056271;28;19921;-79